Kuching International Airport
WBGG : now visible

Airfield :











YOU CAN JOIN US ON...

 
LOGIN :

Register | Disclaimer

   EN    FR    IT 

 









Legend :    VFR   Marginal VFR   IFR   Intensive IFR   Very Intensive IFR
Visi :
Ceiling :
>= 8 km
>= 3000ft
5 to 8 km
1000 to 3000 ft
1500m to 5 km
500 to 1000 ft
800 to 1500m
200 to 500 ft
< 800m
< 200 ft
Symbols :   Thunderstorms  Fog  Heavy snow  Heavy precipitations  Wind > 20 kt






- Airport Elevation : 89 ft
- IATA code : KCH


WBGG - Kuching International

CURRENT METAR :
  • 021330Z VRB02KT 9999 FEW020 25/24 Q1008 NOSIG

EXPIRED METARs :
  • 021300Z 26003KT 210V320 9999 FEW020 25/24 Q1008 NOSIG
  • 021230Z 22004KT 190V270 9999 SCT020 25/24 Q1007 NOSIG
  • 021200Z 25004KT 190V300 9999 SCT020 25/23 Q1007 NOSIG
  • 021130Z 26004KT 190V320 9999 FEW015CB SCT020 25/23 Q1006 NOSIG
  • 021100Z 28003KT 220V330 9999 FEW015CB SCT020 24/24 Q1006 NOSIG

TAF TAF WBGG
Valid from the 02 at 12:00 until the 03 at 12:00 UTC


021100Z 0212/0312 11005KT 9999 FEW020
TEMPO 0305/0309 25006KT 3000 TSRA FEW015CB SCT020
WBFC FIR / Asia



MET'MAP, your aeronautical weather chart ! - Copyright ORBIFLY December 2007 - Disclaimer

ORBIFLY MET'MAP TEAM :

Programming & Development : Alexandra Zaïnal
Original concept : Baudouin d'Aumeries
Technical & hardware support : Manuel Goepfert
Assistance : Marc-Olivier Méhu




SOURCES & CREDITS :

   NOAA       Earth
Advisory